Time;durP1;ratioP1;P1;durP2;ratioP2;P2;SDS_P1;SDS_P2;PMS_P1;PMS_P2;Temp;Humidity;BMP_temperature;BMP_pressure;BME280_temperature;BME280_humidity;BME280_pressure;Samples;Min_cycle;Max_cycle;Signal;HPM_P1;HPM_P2
2022/10/28 00:01:10;;;;;;;15.95;8.23;;;;;;;14.56;100.00;101683.84;5071736;28;20533;-67
2022/10/28 00:03:44;;;;;;;13.57;6.45;;;;;;;14.48;100.00;101685.63;5071829;28;20047;-67
2022/10/28 00:06:34;;;;;;;13.05;6.32;;;;;;;14.39;100.00;101678.81;5071579;28;20028;-67
2022/10/28 00:09:00;;;;;;;14.80;6.65;;;;;;;14.36;100.00;101681.06;5070973;28;20048;-67
2022/10/28 00:11:29;;;;;;;11.27;6.38;;;;;;;14.36;100.00;101681.06;5071493;28;20043;-67
2022/10/28 00:13:56;;;;;;;18.48;7.55;;;;;;;14.33;100.00;101676.94;5071789;28;20471;-67
2022/10/28 00:16:24;;;;;;;17.70;7.60;;;;;;;14.29;100.00;101685.59;5053088;28;20414;-67
2022/10/28 00:18:52;;;;;;;15.57;6.22;;;;;;;14.21;100.00;101675.84;5071489;28;20144;-67
2022/10/28 00:21:26;;;;;;;17.52;6.85;;;;;;;14.17;100.00;101680.81;5071208;28;20035;-67
2022/10/28 00:23:53;;;;;;;14.52;7.88;;;;;;;14.13;100.00;101681.41;5071325;28;20025;-67
2022/10/28 00:26:29;;;;;;;12.27;5.80;;;;;;;14.10;100.00;101676.44;5071293;28;20068;-67
2022/10/28 00:29:01;;;;;;;14.10;6.13;;;;;;;14.02;100.00;101680.09;5071033;28;20491;-67
2022/10/28 00:31:28;;;;;;;17.80;7.38;;;;;;;13.99;100.00;101673.28;5070953;28;20380;-67
2022/10/28 00:33:54;;;;;;;12.50;6.30;;;;;;;13.95;100.00;101674.69;5070435;28;20106;-67
2022/10/28 00:36:22;;;;;;;13.68;7.22;;;;;;;13.90;100.00;101674.47;5071059;28;20070;-67
2022/10/28 00:38:49;;;;;;;14.75;6.88;;;;;;;13.77;100.00;101669.84;5070857;28;20038;-67
2022/10/28 00:41:18;;;;;;;17.48;7.63;;;;;;;13.83;100.00;101668.22;5070815;28;20069;-67
2022/10/28 00:43:49;;;;;;;15.38;7.47;;;;;;;13.86;100.00;101675.91;5070493;28;20058;-67
2022/10/28 00:46:23;;;;;;;16.80;8.23;;;;;;;13.84;100.00;101669.91;5070643;28;20068;-67
2022/10/28 00:48:54;;;;;;;16.70;6.97;;;;;;;13.71;100.00;101673.34;5070774;28;20270;-67
2022/10/28 00:51:21;;;;;;;18.13;6.90;;;;;;;13.71;100.00;101664.47;5070622;28;20029;-67
2022/10/28 00:53:48;;;;;;;16.92;7.32;;;;;;;13.73;100.00;101662.44;5070554;28;20430;-67
2022/10/28 00:56:15;;;;;;;16.80;7.32;;;;;;;13.69;100.00;101666.50;5070744;28;20154;-67
2022/10/28 00:58:41;;;;;;;15.23;7.03;;;;;;;13.68;100.00;101662.19;5070548;28;20600;-67
2022/10/28 01:01:07;;;;;;;17.08;7.07;;;;;;;13.67;100.00;101655.16;5070514;28;20112;-67
2022/10/28 01:03:32;;;;;;;15.35;7.40;;;;;;;13.69;100.00;101650.44;5070441;28;20040;-67
2022/10/28 01:05:59;;;;;;;16.73;8.43;;;;;;;13.69;100.00;101645.06;5070539;28;20073;-67
2022/10/28 01:08:25;;;;;;;16.52;8.27;;;;;;;13.69;100.00;101637.03;5070476;28;20033;-67
2022/10/28 01:11:02;;;;;;;14.95;7.35;;;;;;;13.66;100.00;101638.25;5070256;28;20048;-67
2022/10/28 01:13:34;;;;;;;13.68;7.15;;;;;;;13.65;100.00;101636.59;5052278;28;20028;-67
2022/10/28 01:16:50;;;;;;;18.55;6.72;;;;;;;13.63;100.00;101630.59;5070292;28;20039;-67
2022/10/28 01:19:29;;;;;;;13.23;7.07;;;;;;;13.68;100.00;101627.34;5014743;28;20028;-67
2022/10/28 01:22:13;;;;;;;15.30;6.63;;;;;;;13.72;100.00;101623.22;5070103;28;20115;-67
2022/10/28 01:25:01;;;;;;;20.02;7.70;;;;;;;13.72;100.00;101618.69;5070111;28;20386;-67
2022/10/28 01:27:41;;;;;;;15.95;7.38;;;;;;;13.76;100.00;101624.50;5069881;28;20040;-67
2022/10/28 01:30:20;;;;;;;20.58;8.52;;;;;;;13.78;100.00;101619.72;5069955;28;20036;-67
2022/10/28 01:32:50;;;;;;;17.80;9.05;;;;;;;13.71;100.00;101622.41;5076182;28;20027;-67
2022/10/28 01:35:48;;;;;;;15.25;8.13;;;;;;;13.67;100.00;101622.97;5089127;28;20246;-67
2022/10/28 01:38:45;;;;;;;17.55;9.20;;;;;;;13.65;100.00;101622.34;5089181;28;20378;-67
2022/10/28 01:41:16;;;;;;;15.40;7.85;;;;;;;13.59;100.00;101632.84;5088990;28;20028;-67
2022/10/28 01:43:53;;;;;;;16.20;8.52;;;;;;;13.55;100.00;101623.56;5089154;28;20039;-67
2022/10/28 01:46:43;;;;;;;16.48;7.43;;;;;;;13.53;100.00;101622.09;5088885;28;20032;-67
2022/10/28 01:49:22;;;;;;;16.65;7.05;;;;;;;13.41;100.00;101618.28;5070819;28;20409;-67
2022/10/28 01:51:52;;;;;;;13.18;7.03;;;;;;;13.35;100.00;101611.88;5089088;28;20040;-67
2022/10/28 01:54:22;;;;;;;20.90;8.25;;;;;;;13.37;100.00;101617.88;5089044;28;20034;-67
2022/10/28 01:56:49;;;;;;;16.52;7.38;;;;;;;13.33;100.00;101608.56;5088966;28;20024;-67
2022/10/28 01:59:25;;;;;;;15.48;7.47;;;;;;;13.33;100.00;101605.88;5088922;28;20677;-67
2022/10/28 02:01:50;;;;;;;15.10;7.57;;;;;;;13.33;100.00;101613.91;5088865;28;20024;-67
2022/10/28 02:04:16;;;;;;;14.07;7.55;;;;;;;13.28;100.00;101611.84;5089054;28;20031;-67
2022/10/28 02:06:45;;;;;;;13.80;7.18;;;;;;;13.21;100.00;101613.59;5088481;28;20039;-67
2022/10/28 02:09:28;;;;;;;15.82;6.82;;;;;;;13.21;100.00;101616.28;5089002;28;20034;-67
2022/10/28 02:12:15;;;;;;;15.95;6.85;;;;;;;13.24;100.00;101607.03;5088847;28;20037;-67
2022/10/28 02:14:59;;;;;;;13.27;7.32;;;;;;;13.20;100.00;101613.78;5088854;28;20024;-67
2022/10/28 02:17:45;;;;;;;20.77;6.60;;;;;;;13.16;100.00;101610.69;5088905;28;20034;-67
2022/10/28 02:20:29;;;;;;;19.00;7.50;;;;;;;13.16;100.00;101611.50;5088804;28;20016;-67
2022/10/28 02:23:32;;;;;;;12.73;5.85;;;;;;;13.16;100.00;101613.38;5088754;28;20024;-67
2022/10/28 02:26:10;;;;;;;18.95;7.30;;;;;;;13.11;100.00;101615.81;5088753;28;20024;-67
2022/10/28 02:29:05;;;;;;;13.48;6.63;;;;;;;13.06;100.00;101611.03;5088584;28;20089;-67
2022/10/28 02:31:36;;;;;;;13.10;6.60;;;;;;;13.02;100.00;101611.59;5066297;28;20091;-67
2022/10/28 02:34:10;;;;;;;15.10;7.30;;;;;;;13.03;100.00;101607.91;5088572;28;20039;-67
2022/10/28 02:36:40;;;;;;;13.82;5.75;;;;;;;12.92;100.00;101595.88;5070846;28;20048;-67
2022/10/28 02:39:06;;;;;;;13.02;5.60;;;;;;;12.91;100.00;101612.94;5069311;28;20028;-67
2022/10/28 02:41:43;;;;;;;15.32;7.43;;;;;;;12.85;100.00;101598.50;5079461;28;20511;-67
2022/10/28 02:44:13;;;;;;;12.23;6.15;;;;;;;12.78;100.00;101594.94;5091193;28;20032;-67
2022/10/28 02:46:42;;;;;;;19.65;6.88;;;;;;;12.84;100.00;101606.75;5088406;28;20030;-67
2022/10/28 02:49:11;;;;;;;13.65;6.72;;;;;;;12.79;100.00;101593.09;5087988;28;20051;-67
2022/10/28 02:51:44;;;;;;;15.13;7.00;;;;;;;12.80;100.00;101594.75;5088205;28;20028;-67
2022/10/28 02:54:16;;;;;;;17.92;7.65;;;;;;;12.88;100.00;101589.25;5088315;28;20059;-67
2022/10/28 02:56:54;;;;;;;13.43;6.78;;;;;;;12.85;100.00;101590.47;5088471;28;20024;-67
2022/10/28 02:59:20;;;;;;;13.68;8.13;;;;;;;12.82;100.00;101590.03;5088472;28;20076;-67
2022/10/28 03:01:45;;;;;;;16.23;7.75;;;;;;;12.82;100.00;101592.72;5088243;28;20031;-67
2022/10/28 03:04:10;;;;;;;13.80;6.50;;;;;;;12.80;100.00;101603.59;5088364;28;20389;-67
2022/10/28 03:06:36;;;;;;;11.48;5.95;;;;;;;12.72;100.00;101591.19;5088489;28;20438;-67
2022/10/28 03:09:01;;;;;;;14.63;7.10;;;;;;;12.75;100.00;101594.50;5088489;28;20538;-67
2022/10/28 03:11:26;;;;;;;17.27;6.95;;;;;;;12.74;100.00;101592.84;5087976;28;20130;-67
2022/10/28 03:13:52;;;;;;;16.50;7.50;;;;;;;12.69;100.00;101593.41;5069835;28;20028;-67
2022/10/28 03:16:17;;;;;;;11.43;5.93;;;;;;;12.71;100.00;101594.88;5088443;28;20028;-67
2022/10/28 03:18:42;;;;;;;15.43;7.15;;;;;;;12.72;100.00;101593.03;5071180;28;20032;-67
2022/10/28 03:21:08;;;;;;;11.77;6.65;;;;;;;12.70;100.00;101595.88;5072513;28;20016;-67
2022/10/28 03:23:33;;;;;;;15.95;6.75;;;;;;;12.60;100.00;101592.72;5072297;28;20028;-67
2022/10/28 03:25:59;;;;;;;14.30;6.25;;;;;;;12.58;100.00;101591.28;5072438;28;20031;-67
2022/10/28 03:28:24;;;;;;;16.05;6.55;;;;;;;12.52;100.00;101592.00;5071712;28;20452;-67
2022/10/28 03:30:49;;;;;;;13.63;6.57;;;;;;;12.44;100.00;101577.75;5072260;28;20142;-67
2022/10/28 03:33:15;;;;;;;11.95;5.63;;;;;;;12.39;100.00;101580.19;5072486;28;20395;-67
2022/10/28 03:35:40;;;;;;;12.82;6.13;;;;;;;12.37;100.00;101587.56;5091650;28;20032;-67
2022/10/28 03:38:05;;;;;;;16.25;7.18;;;;;;;12.35;100.00;101578.06;5091471;28;20088;-67
2022/10/28 03:40:31;;;;;;;16.08;7.40;;;;;;;12.35;100.00;101586.09;5091451;28;20113;-67
2022/10/28 03:42:56;;;;;;;14.93;7.60;;;;;;;12.34;100.00;101579.91;5091459;28;20470;-67
2022/10/28 03:45:22;;;;;;;15.98;6.22;;;;;;;12.37;100.00;101594.75;5091358;28;20085;-67
2022/10/28 03:47:47;;;;;;;12.23;6.43;;;;;;;12.31;100.00;101590.16;5091472;28;20035;-67
2022/10/28 03:50:13;;;;;;;19.15;7.85;;;;;;;12.31;100.00;101585.63;5090703;28;20032;-67
2022/10/28 03:52:38;;;;;;;13.50;5.38;;;;;;;12.31;100.00;101580.28;5091218;28;20047;-67
2022/10/28 03:55:04;;;;;;;17.65;6.88;;;;;;;12.37;100.00;101582.22;5091197;28;20054;-67
2022/10/28 03:57:31;;;;;;;15.77;7.18;;;;;;;12.40;100.00;101581.00;5091114;28;20032;-67
2022/10/28 03:59:56;;;;;;;11.80;5.30;;;;;;;12.36;100.00;101575.19;5091048;28;20028;-67
2022/10/28 04:02:22;;;;;;;12.02;6.78;;;;;;;12.37;100.00;101582.22;5091108;28;20035;-67
2022/10/28 04:04:47;;;;;;;15.80;7.20;;;;;;;12.34;100.00;101579.91;5073116;28;20035;-67
2022/10/28 04:07:12;;;;;;;20.25;7.05;;;;;;;12.31;100.00;101579.47;5090798;28;20592;-67
2022/10/28 04:09:38;;;;;;;17.80;8.23;;;;;;;12.34;100.00;101587.09;5090813;28;20367;-67
2022/10/28 04:12:05;;;;;;;17.33;7.72;;;;;;;12.34;100.00;101576.41;5090769;28;20040;-67
2022/10/28 04:14:30;;;;;;;14.15;6.28;;;;;;;12.31;100.00;101574.09;5090495;28;20024;-67
2022/10/28 04:16:56;;;;;;;15.05;6.85;;;;;;;12.30;100.00;101575.97;5090877;28;20027;-67
2022/10/28 04:19:21;;;;;;;13.27;6.38;;;;;;;12.30;100.00;101578.63;5090942;28;20056;-67
2022/10/28 04:21:46;;;;;;;12.45;5.93;;;;;;;12.30;100.00;101578.63;5090414;28;20032;-67
2022/10/28 04:24:12;;;;;;;15.43;6.43;;;;;;;12.30;100.00;101583.97;5090597;28;20043;-67
2022/10/28 04:26:37;;;;;;;13.73;6.63;;;;;;;12.26;100.00;101585.38;5090466;28;20035;-67
2022/10/28 04:29:02;;;;;;;13.82;6.00;;;;;;;12.25;100.00;101579.19;5089727;28;20079;-67
2022/10/28 04:31:28;;;;;;;13.57;6.30;;;;;;;12.27;100.00;101590.53;5090316;28;20097;-67
2022/10/28 04:33:53;;;;;;;15.40;5.38;;;;;;;12.25;100.00;101586.41;5090341;28;20366;-67
2022/10/28 04:36:18;;;;;;;15.55;6.72;;;;;;;12.26;100.00;101594.25;5071977;28;20423;-67
2022/10/28 04:38:44;;;;;;;14.27;7.30;;;;;;;12.29;100.00;101590.38;5090281;28;20450;-67
2022/10/28 04:41:13;;;;;;;12.55;5.95;;;;;;;12.30;100.00;101589.34;5090225;28;20031;-67
2022/10/28 04:43:38;;;;;;;14.32;6.15;;;;;;;12.32;100.00;101589.97;5090122;28;20364;-67
2022/10/28 04:46:04;;;;;;;14.45;7.88;;;;;;;12.35;100.00;101591.44;5090101;28;20038;-67
2022/10/28 04:48:31;;;;;;;19.27;7.35;;;;;;;12.33;100.00;101586.28;5090199;28;21048;-67
2022/10/28 04:50:56;;;;;;;15.77;6.40;;;;;;;12.35;100.00;101583.41;5089645;28;20035;-67
2022/10/28 04:53:21;;;;;;;12.43;7.00;;;;;;;12.31;100.00;101585.63;5089780;28;20040;-67
2022/10/28 04:55:47;;;;;;;12.55;5.30;;;;;;;12.26;100.00;101582.69;5071863;28;20032;-67
2022/10/28 04:58:12;;;;;;;11.98;5.53;;;;;;;12.24;100.00;101592.78;5090007;28;20038;-67
2022/10/28 05:00:37;;;;;;;13.52;6.22;;;;;;;12.16;100.00;101591.03;5089990;28;20055;-67
2022/10/28 05:03:03;;;;;;;13.52;6.85;;;;;;;12.07;100.00;101587.63;5089509;28;20050;-67
2022/10/28 05:05:28;;;;;;;16.52;5.97;;;;;;;12.09;100.00;101587.47;5089906;28;20067;-67
2022/10/28 05:07:54;;;;;;;14.30;6.30;;;;;;;12.07;100.00;101576.94;5089706;28;20043;-67
2022/10/28 05:10:19;;;;;;;17.48;6.90;;;;;;;12.11;100.00;101581.94;5090264;28;20493;-67
2022/10/28 05:12:45;;;;;;;16.40;6.50;;;;;;;12.07;100.00;101571.59;5075856;28;20035;-67
2022/10/28 05:15:11;;;;;;;18.50;7.75;;;;;;;12.15;100.00;101578.66;5072699;28;20035;-66
2022/10/28 05:17:44;;;;;;;20.05;7.53;;;;;;;12.19;100.00;101579.13;5089466;28;20032;-67
2022/10/28 05:20:10;;;;;;;23.85;9.27;;;;;;;12.19;100.00;101576.47;5089512;28;20031;-67
2022/10/28 05:22:36;;;;;;;18.27;7.88;;;;;;;12.16;100.00;101580.34;5089511;28;20039;-67
2022/10/28 05:25:03;;;;;;;16.45;6.68;;;;;;;12.10;100.00;101567.72;5089727;28;20036;-67
2022/10/28 05:27:28;;;;;;;20.13;8.30;;;;;;;12.21;100.00;101579.78;5089062;28;20028;-67
2022/10/28 05:29:53;;;;;;;14.50;6.85;;;;;;;12.13;100.00;101570.03;5089361;28;20031;-67
2022/10/28 05:32:19;;;;;;;17.85;7.65;;;;;;;12.16;100.00;101577.66;5089340;28;20040;-67
2022/10/28 05:34:44;;;;;;;16.85;7.38;;;;;;;12.23;100.00;101575.06;5070427;28;20043;-67
2022/10/28 05:37:10;;;;;;;17.70;6.93;;;;;;;12.26;100.00;101574.66;5069900;28;20047;-67
2022/10/28 05:39:35;;;;;;;18.33;7.47;;;;;;;12.33;100.00;101572.06;5069562;28;20038;-67
2022/10/28 05:42:00;;;;;;;17.75;9.15;;;;;;;12.42;100.00;101565.59;5069416;28;20403;-73
2022/10/28 05:44:26;;;;;;;16.27;7.60;;;;;;;12.55;100.00;101552.34;5069874;28;20056;-73
2022/10/28 05:46:52;;;;;;;14.38;5.90;;;;;;;12.68;100.00;101562.31;5069787;28;20387;-73
2022/10/28 05:49:19;;;;;;;14.70;6.65;;;;;;;12.75;100.00;101563.19;5069828;28;20043;-73
2022/10/28 05:51:45;;;;;;;15.77;6.47;;;;;;;12.78;100.00;101567.34;5069336;28;20098;-72
2022/10/28 05:54:11;;;;;;;16.75;6.95;;;;;;;12.80;100.00;101563.44;5069368;28;20040;-73
2022/10/28 05:56:36;;;;;;;16.35;6.45;;;;;;;12.85;100.00;101566.38;5069479;28;20037;-73
2022/10/28 05:59:02;;;;;;;19.45;7.15;;;;;;;12.85;100.00;101566.38;5069201;28;20039;-73
2022/10/28 06:01:27;;;;;;;23.10;6.90;;;;;;;12.92;100.00;101571.78;5069236;28;20360;-73
2022/10/28 06:03:53;;;;;;;15.55;6.85;;;;;;;12.94;100.00;101567.03;5069750;28;20060;-73
2022/10/28 06:06:18;;;;;;;21.05;8.07;;;;;;;12.99;100.00;101564.59;5069699;28;20115;-72
2022/10/28 06:08:44;;;;;;;14.80;7.90;;;;;;;13.06;100.00;101570.84;5069633;28;20370;-73
2022/10/28 06:11:09;;;;;;;13.55;7.15;;;;;;;13.16;100.00;101570.50;5069535;28;20127;-72
2022/10/28 06:13:35;;;;;;;25.15;9.50;;;;;;;13.16;100.00;101574.00;5069614;28;20119;-73
2022/10/28 06:16:00;;;;;;;16.80;6.22;;;;;;;13.25;100.00;101588.06;5069634;28;20586;-73
2022/10/28 06:18:25;;;;;;;11.80;6.10;;;;;;;13.28;100.00;101581.53;5069541;28;20033;-72
2022/10/28 06:20:53;;;;;;;20.17;8.40;;;;;;;13.30;100.00;101584.84;5069560;28;20021;-72
2022/10/28 06:23:18;;;;;;;15.77;8.00;;;;;;;13.34;100.00;101583.44;5069370;28;20040;-73
2022/10/28 06:25:43;;;;;;;16.63;6.10;;;;;;;13.37;100.00;101585.72;5069249;28;20047;-73
2022/10/28 06:28:09;;;;;;;12.88;6.22;;;;;;;13.40;100.00;101592.53;5068950;28;20056;-73
2022/10/28 06:30:34;;;;;;;19.00;6.95;;;;;;;13.35;100.00;101577.88;5069131;28;20136;-73
2022/10/28 06:33:00;;;;;;;16.05;6.43;;;;;;;13.48;100.00;101589.69;5069353;28;20033;-72
2022/10/28 06:35:25;;;;;;;17.70;6.47;;;;;;;13.50;100.00;101593.84;5069269;28;20071;-72
2022/10/28 06:37:55;;;;;;;14.73;6.40;;;;;;;13.52;100.00;101578.38;5069398;28;20568;-73
2022/10/28 06:40:21;;;;;;;13.63;6.18;;;;;;;13.58;100.00;101585.63;5069272;28;20071;-67
2022/10/28 06:42:46;;;;;;;23.50;7.00;;;;;;;13.65;100.00;101584.81;5069192;28;20636;-68
2022/10/28 06:45:11;;;;;;;17.95;6.30;;;;;;;13.67;100.00;101588.13;5069294;28;20062;-67
2022/10/28 06:47:37;;;;;;;17.15;7.15;;;;;;;13.67;100.00;101593.50;5069270;28;20025;-67
2022/10/28 06:50:02;;;;;;;14.68;5.75;;;;;;;13.68;100.00;101582.59;5050767;28;20077;-68
2022/10/28 06:52:28;;;;;;;14.30;5.80;;;;;;;13.71;100.00;101587.53;5070707;28;20043;-67
2022/10/28 06:54:53;;;;;;;12.57;5.90;;;;;;;13.77;100.00;101589.41;5072784;28;20133;-67
2022/10/28 06:57:18;;;;;;;15.18;5.65;;;;;;;13.81;100.00;101584.50;5072493;28;20067;-67
2022/10/28 06:59:44;;;;;;;15.50;7.43;;;;;;;13.89;100.00;101587.00;5072891;28;20142;-67
2022/10/28 07:02:10;;;;;;;14.95;6.43;;;;;;;13.97;100.00;101580.66;5072795;28;20032;-67
2022/10/28 07:04:36;;;;;;;12.60;6.03;;;;;;;14.01;100.00;101579.19;5092190;28;20031;-67
2022/10/28 07:07:01;;;;;;;17.92;6.18;;;;;;;14.06;100.00;101590.16;5092168;28;20060;-66
2022/10/28 07:09:26;;;;;;;17.65;6.78;;;;;;;14.09;100.00;101583.56;5091974;28;20031;-71
2022/10/28 07:11:52;;;;;;;12.73;5.82;;;;;;;14.15;100.00;101588.13;5092020;28;20463;-71
2022/10/28 07:14:17;;;;;;;16.10;6.00;;;;;;;14.17;100.00;101588.72;5091911;28;20055;-72
2022/10/28 07:16:42;;;;;;;17.92;6.95;;;;;;;14.19;100.00;101598.22;5091977;28;20046;-72
2022/10/28 07:19:08;;;;;;;17.23;7.18;;;;;;;14.21;100.00;101581.94;5091775;28;20031;-72
2022/10/28 07:21:34;;;;;;;16.08;7.00;;;;;;;14.30;100.00;101585.25;5091541;28;20035;-72
2022/10/28 07:24:00;;;;;;;15.35;6.28;;;;;;;14.36;100.00;101589.84;5088402;28;20483;-70
2022/10/28 07:26:26;;;;;;;15.30;5.90;;;;;;;14.40;100.00;101585.69;5083957;28;20066;-72
2022/10/28 07:28:52;;;;;;;18.92;6.97;;;;;;;14.51;100.00;101582.41;5091423;28;20499;-73
2022/10/28 07:31:18;;;;;;;17.80;7.63;;;;;;;14.64;100.00;101584.31;5080297;28;20103;-71
2022/10/28 07:33:43;;;;;;;17.33;6.78;;;;;;;14.74;100.00;101595.47;5078494;28;20051;-72
2022/10/28 07:36:09;;;;;;;17.23;6.50;;;;;;;14.83;100.00;101596.94;5079746;28;20026;-70
2022/10/28 07:38:34;;;;;;;14.85;6.53;;;;;;;14.95;100.00;101597.13;5078978;28;20064;-71
2022/10/28 07:41:08;;;;;;;18.20;6.65;;;;;;;15.06;100.00;101609.94;5078496;28;20430;-71
2022/10/28 07:43:37;;;;;;;16.13;6.53;;;;;;;15.20;100.00;101608.06;5079135;28;20499;-72
2022/10/28 07:46:04;;;;;;;17.13;6.63;;;;;;;15.32;100.00;101605.56;5078003;28;20019;-74
2022/10/28 07:48:30;;;;;;;13.23;6.47;;;;;;;15.43;100.00;101604.09;5079767;28;20402;-72
2022/10/28 07:50:55;;;;;;;15.57;5.90;;;;;;;15.52;100.00;101600.97;5075946;28;20039;-71
2022/10/28 07:53:20;;;;;;;14.93;5.60;;;;;;;15.64;100.00;101600.31;5072241;28;20517;-71
2022/10/28 07:55:57;;;;;;;14.00;6.95;;;;;;;15.75;100.00;101592.44;5071895;28;20120;-71
2022/10/28 07:58:22;;;;;;;19.40;7.22;;;;;;;15.86;100.00;101598.22;5071001;28;20044;-72
2022/10/28 08:00:47;;;;;;;15.48;6.20;;;;;;;15.96;100.00;101585.13;5071732;28;20482;-72
2022/10/28 08:03:13;;;;;;;15.75;6.07;;;;;;;16.03;100.00;101588.59;5070815;28;20056;-72
2022/10/28 08:05:38;;;;;;;19.83;7.93;;;;;;;16.14;100.00;101582.53;5071532;28;20033;-72
2022/10/28 08:08:04;;;;;;;19.95;6.63;;;;;;;16.22;100.00;101584.16;5071689;28;20063;-74
2022/10/28 08:10:29;;;;;;;16.10;5.70;;;;;;;16.30;100.00;101577.69;5071611;28;20123;-72
2022/10/28 08:12:56;;;;;;;15.27;6.20;;;;;;;16.44;100.00;101585.44;5071206;28;20116;-72
2022/10/28 08:15:22;;;;;;;22.13;7.10;;;;;;;16.56;100.00;101572.13;5071099;28;20082;-72
2022/10/28 08:17:51;;;;;;;16.80;5.75;;;;;;;16.77;100.00;101587.13;5071029;28;20025;-72
2022/10/28 08:20:17;;;;;;;17.00;6.82;;;;;;;16.91;100.00;101593.22;5070912;28;20033;-72
2022/10/28 08:22:42;;;;;;;14.55;5.75;;;;;;;17.05;100.00;101583.94;5071455;28;20074;-71
2022/10/28 08:25:08;;;;;;;16.38;8.07;;;;;;;17.18;99.15;101592.97;5077498;28;20654;-71
2022/10/28 08:27:33;;;;;;;15.30;5.63;;;;;;;17.28;99.05;101595.97;5077552;28;20674;-72
2022/10/28 08:29:59;;;;;;;17.48;5.97;;;;;;;17.33;98.56;101606.09;5076286;28;20071;-72
2022/10/28 08:32:24;;;;;;;18.45;6.65;;;;;;;17.35;99.25;101609.41;5078901;28;20051;-72
2022/10/28 08:34:49;;;;;;;18.85;5.88;;;;;;;17.36;98.90;101611.88;5075381;28;20028;-72
2022/10/28 08:37:15;;;;;;;12.80;5.63;;;;;;;17.44;97.45;101610.75;5081199;28;20024;-72
2022/10/28 08:39:40;;;;;;;15.68;6.57;;;;;;;17.43;97.74;101609.94;5082023;28;20111;-72
2022/10/28 08:42:27;;;;;;;15.88;5.78;;;;;;;17.42;98.29;101607.44;5081541;28;20051;-72
2022/10/28 08:45:31;;;;;;;20.52;5.70;;;;;;;17.33;97.48;101604.22;5082102;28;20024;-72
2022/10/28 08:48:19;;;;;;;18.02;7.00;;;;;;;17.30;98.45;101601.97;5036251;28;20039;-72
2022/10/28 08:50:50;;;;;;;15.88;6.50;;;;;;;17.38;98.26;101601.69;5080733;28;20032;-72
2022/10/28 08:53:24;;;;;;;14.48;6.30;;;;;;;17.46;98.79;101603.25;5080996;28;20036;-72
2022/10/28 08:55:55;;;;;;;12.77;6.03;;;;;;;17.53;97.92;101599.44;5080365;28;20033;-72
2022/10/28 08:58:25;;;;;;;22.50;8.50;;;;;;;17.63;98.23;101595.38;5059352;28;20028;-73
2022/10/28 09:00:53;;;;;;;13.52;6.18;;;;;;;17.71;97.44;101593.22;5076876;28;20016;-73
2022/10/28 09:03:27;;;;;;;13.63;6.47;;;;;;;17.87;96.80;101591.00;5076725;28;20103;-73
2022/10/28 09:05:59;;;;;;;20.00;6.03;;;;;;;18.05;95.42;101596.38;5075032;28;20032;-73
2022/10/28 09:08:27;;;;;;;14.18;5.57;;;;;;;18.20;96.94;101597.81;5076531;28;20596;-72
2022/10/28 09:11:23;;;;;;;17.42;5.75;;;;;;;18.23;94.83;101608.16;5077251;28;20059;-72
2022/10/28 09:13:59;;;;;;;14.68;6.18;;;;;;;18.26;95.39;101607.69;5076383;28;20033;-71
2022/10/28 09:16:46;;;;;;;15.43;5.97;;;;;;;18.34;95.53;101621.72;5086339;28;20529;-71
2022/10/28 09:19:32;;;;;;;16.38;6.47;;;;;;;18.33;94.28;101614.66;5089610;28;20390;-71
2022/10/28 09:22:20;;;;;;;21.23;6.30;;;;;;;18.33;93.45;101614.66;5089388;28;20036;-72
2022/10/28 09:25:02;;;;;;;14.02;6.00;;;;;;;18.34;94.11;101613.63;5069739;28;20544;-71
2022/10/28 09:27:45;;;;;;;17.00;6.30;;;;;;;18.35;94.63;101615.25;5070165;28;20021;-71
2022/10/28 09:30:16;;;;;;;20.35;7.15;;;;;;;18.44;93.95;101626.53;5069246;28;20051;-71
2022/10/28 09:32:54;;;;;;;14.60;6.85;;;;;;;18.59;95.04;101618.03;5069886;28;20407;-71
2022/10/28 09:35:24;;;;;;;18.05;5.55;;;;;;;18.72;92.56;101617.81;5069563;28;20036;-73
2022/10/28 09:37:56;;;;;;;13.23;4.88;;;;;;;18.97;93.04;101620.38;5069927;28;20054;-71
2022/10/28 09:40:25;;;;;;;12.70;5.10;;;;;;;19.20;91.37;101616.84;5051721;28;20399;-71
2022/10/28 09:43:21;;;;;;;16.13;5.70;;;;;;;19.42;93.23;101622.47;5076386;28;20024;-73
2022/10/28 09:45:49;;;;;;;14.77;6.07;;;;;;;19.39;90.09;101614.03;5076518;28;20050;-72
2022/10/28 09:48:28;;;;;;;16.38;5.40;;;;;;;19.41;89.25;101625.41;5075370;28;20028;-71
2022/10/28 09:50:55;;;;;;;13.55;4.65;;;;;;;19.27;89.24;101617.53;5076334;28;20041;-72
2022/10/28 09:53:39;;;;;;;13.98;5.05;;;;;;;19.23;91.17;101621.78;5075764;28;20092;-73
2022/10/28 09:56:05;;;;;;;15.18;6.22;;;;;;;19.17;89.96;101617.31;5074015;28;20471;-74
2022/10/28 09:58:32;;;;;;;13.63;5.63;;;;;;;19.21;90.51;101618.50;5077304;28;20043;-72
2022/10/28 10:00:58;;;;;;;13.57;5.32;;;;;;;19.40;90.71;101621.06;5073981;28;20036;-71
2022/10/28 10:03:23;;;;;;;14.65;5.45;;;;;;;19.52;89.46;101618.34;5075573;28;20032;-71
2022/10/28 10:05:52;;;;;;;13.40;5.47;;;;;;;19.60;90.01;101629.63;5058325;28;20039;-72
2022/10/28 10:08:19;;;;;;;14.15;4.30;;;;;;;19.68;89.07;101628.47;5075997;28;20479;-72
2022/10/28 10:10:54;;;;;;;13.45;4.88;;;;;;;19.77;89.83;101631.63;5071737;28;20017;-74
2022/10/28 10:13:26;;;;;;;14.05;6.30;;;;;;;19.84;87.81;101632.31;5069805;28;20468;-72
2022/10/28 10:15:59;;;;;;;14.88;4.95;;;;;;;19.93;88.86;101626.28;5069675;28;20638;-73
2022/10/28 10:18:31;;;;;;;16.13;5.28;;;;;;;20.04;87.15;101629.19;5069619;28;20024;-72
2022/10/28 10:20:57;;;;;;;13.93;4.63;;;;;;;20.08;86.40;101620.34;5071618;28;20067;-73
2022/10/28 10:23:29;;;;;;;12.50;5.13;;;;;;;20.10;86.53;101615.53;5076775;28;20041;-71
2022/10/28 10:25:58;;;;;;;16.45;5.25;;;;;;;20.17;85.15;101622.66;5076976;28;20391;-72
2022/10/28 10:28:26;;;;;;;9.98;4.38;;;;;;;20.21;85.04;101615.72;5078775;28;20071;-72
2022/10/28 10:30:54;;;;;;;9.75;4.00;;;;;;;20.27;83.62;101626.38;5079743;28;20039;-73
2022/10/28 10:33:23;;;;;;;12.07;4.30;;;;;;;20.30;84.88;101623.22;5081691;28;20081;-73
2022/10/28 10:35:55;;;;;;;19.08;5.07;;;;;;;20.36;83.37;101621.41;5092635;28;20081;-73
2022/10/28 10:38:20;;;;;;;11.98;4.65;;;;;;;20.49;85.60;101612.97;5092909;28;20079;-73
2022/10/28 10:40:51;;;;;;;18.45;5.43;;;;;;;20.58;85.33;101616.94;5092126;28;20056;-73
2022/10/28 10:43:16;;;;;;;15.73;5.47;;;;;;;20.65;83.15;101613.28;5092434;28;20071;-74
2022/10/28 10:45:50;;;;;;;11.37;4.67;;;;;;;20.64;83.36;101612.44;5092579;28;20497;-73
2022/10/28 10:48:17;;;;;;;16.77;4.97;;;;;;;20.67;81.38;101611.13;5092504;28;20277;-73
2022/10/28 10:50:45;;;;;;;10.75;4.43;;;;;;;20.71;81.04;101599.56;5092530;28;20032;-73
2022/10/28 10:53:24;;;;;;;9.95;4.18;;;;;;;20.75;82.16;101594.44;5092580;28;20042;-73
2022/10/28 10:56:10;;;;;;;17.67;5.30;;;;;;;20.77;82.11;101595.03;5091939;28;20024;-73
2022/10/28 10:58:47;;;;;;;22.58;5.00;;;;;;;20.94;82.04;101593.16;5092105;28;20036;-73
2022/10/28 11:01:18;;;;;;;15.68;5.43;;;;;;;21.06;81.15;101594.94;5092237;28;20035;-73
2022/10/28 11:03:53;;;;;;;10.13;4.95;;;;;;;21.11;80.94;101597.72;5091389;28;20509;-73
2022/10/28 11:06:25;;;;;;;14.27;4.63;;;;;;;21.14;79.53;101586.38;5092344;28;20114;-73
2022/10/28 11:09:01;;;;;;;11.88;4.82;;;;;;;21.15;78.91;101579.88;5072292;28;20100;-73
2022/10/28 11:11:38;;;;;;;13.07;4.35;;;;;;;21.23;79.16;101584.88;5072565;28;20028;-73
2022/10/28 11:14:03;;;;;;;13.93;5.05;;;;;;;21.30;78.80;101590.97;5072538;28;20067;-73
2022/10/28 11:16:29;;;;;;;12.48;4.75;;;;;;;21.38;77.36;101593.28;5072628;28;20424;-73
2022/10/28 11:18:54;;;;;;;7.90;3.45;;;;;;;21.48;75.39;101598.00;5072553;28;20434;-73
2022/10/28 11:21:35;;;;;;;14.15;4.57;;;;;;;21.56;75.72;101594.03;5072184;28;20032;-74
2022/10/28 11:24:18;;;;;;;14.55;4.55;;;;;;;21.59;74.95;101582.69;5072491;28;20060;-73